PSCRJ SDAG-SBJR
Flight info
| Callsign | PSCRJ |
|---|---|
| Flight time | 0h 32m |
| Altitude | 3500 |
| Route | DCT REH 2255S04353W DCT 2247S04338W DCT 2252S04335W DCT 2301S04323W DCT |
| Aircraft | S76/M-SDFGR/S |
Departure
| Time | 2026-04-28 20:46 |
|---|---|
| Airport | Angra dos Reis Airport (SDAG) |
Arrival
| Time | 2026-04-28 21:18 |
|---|---|
| Airport | Jacarepaguá - Roberto Marinho Airport (SBJR) |
| Time | Latitude | Longitude | Altitude | Speed | Heading |
|---|---|---|---|---|---|
| 2026-04-28 20:41 | -22.97588 | -44.30451 | 37 ft | 0 kts | 169° |
| 2026-04-28 20:43 | -22.97594 | -44.30451 | 37 ft | 2 kts | 198° |
| 2026-04-28 20:43 | -22.97592 | -44.30462 | 37 ft | 2 kts | 335° |
| 2026-04-28 20:43 | -22.97582 | -44.30443 | 37 ft | 9 kts | 69° |
| 2026-04-28 20:44 | -22.97570 | -44.30427 | 37 ft | 0 kts | 5° |
| 2026-04-28 20:44 | -22.97541 | -44.30425 | 37 ft | 3 kts | 357° |
| 2026-04-28 20:44 | -22.97498 | -44.30434 | 45 ft | 6 kts | 348° |
| 2026-04-28 20:44 | -22.97453 | -44.30421 | 111 ft | 14 kts | 70° |
| 2026-04-28 20:45 | -22.97467 | -44.30362 | 57 ft | 6 kts | 87° |
| 2026-04-28 20:45 | -22.97459 | -44.30348 | 62 ft | 2 kts | 81° |
| 2026-04-28 20:45 | -22.97468 | -44.30356 | 63 ft | 1 kts | 81° |
| 2026-04-28 20:45 | -22.97462 | -44.30343 | 62 ft | 2 kts | 81° |
| 2026-04-28 20:46 | -22.97469 | -44.30337 | 64 ft | 2 kts | 81° |
| 2026-04-28 20:46 | -22.97461 | -44.30307 | 436 ft | 23 kts | 79° |
| 2026-04-28 20:46 | -22.97447 | -44.29887 | 1007 ft | 83 kts | 86° |
| 2026-04-28 20:46 | -22.97365 | -44.29083 | 1425 ft | 135 kts | 81° |
| 2026-04-28 20:47 | -22.97238 | -44.27993 | 1367 ft | 144 kts | 82° |
| 2026-04-28 20:47 | -22.97130 | -44.26966 | 1786 ft | 132 kts | 82° |
| 2026-04-28 20:47 | -22.97023 | -44.25977 | 2281 ft | 133 kts | 82° |
| 2026-04-28 20:47 | -22.96916 | -44.24983 | 2754 ft | 132 kts | 82° |
| 2026-04-28 20:48 | -22.96811 | -44.23998 | 3215 ft | 132 kts | 82° |
| 2026-04-28 20:48 | -22.96704 | -44.23005 | 3659 ft | 135 kts | 82° |
| 2026-04-28 20:48 | -22.96587 | -44.21936 | 3542 ft | 145 kts | 82° |
| 2026-04-28 20:48 | -22.96471 | -44.20861 | 3553 ft | 144 kts | 82° |
| 2026-04-28 20:49 | -22.96352 | -44.19759 | 3524 ft | 148 kts | 82° |
| 2026-04-28 20:49 | -22.96231 | -44.18642 | 3508 ft | 148 kts | 82° |
| 2026-04-28 20:49 | -22.96111 | -44.17529 | 3502 ft | 148 kts | 82° |
| 2026-04-28 20:49 | -22.95991 | -44.16415 | 3500 ft | 148 kts | 82° |
| 2026-04-28 20:50 | -22.95850 | -44.15304 | 3499 ft | 149 kts | 79° |
| 2026-04-28 20:50 | -22.95678 | -44.14200 | 3499 ft | 149 kts | 79° |
| 2026-04-28 20:50 | -22.95506 | -44.13097 | 3500 ft | 149 kts | 79° |
| 2026-04-28 20:50 | -22.95332 | -44.11992 | 3500 ft | 149 kts | 79° |
| 2026-04-28 20:51 | -22.95158 | -44.10887 | 3499 ft | 149 kts | 79° |
| 2026-04-28 20:51 | -22.94984 | -44.09782 | 3501 ft | 149 kts | 79° |
| 2026-04-28 20:51 | -22.94810 | -44.08680 | 3499 ft | 149 kts | 79° |
| 2026-04-28 20:51 | -22.94694 | -44.07945 | 3499 ft | 149 kts | 79° |
| 2026-04-28 20:52 | -22.94461 | -44.06470 | 3500 ft | 149 kts | 79° |
| 2026-04-28 20:52 | -22.94287 | -44.05368 | 3498 ft | 149 kts | 79° |
| 2026-04-28 20:52 | -22.94113 | -44.04262 | 3500 ft | 149 kts | 79° |
| 2026-04-28 20:52 | -22.93938 | -44.03156 | 3500 ft | 149 kts | 79° |
| 2026-04-28 20:53 | -22.93589 | -44.00948 | 3501 ft | 149 kts | 79° |
| 2026-04-28 20:53 | -22.93414 | -43.99844 | 3499 ft | 149 kts | 79° |
| 2026-04-28 20:53 | -22.93239 | -43.98736 | 3500 ft | 149 kts | 79° |
| 2026-04-28 20:54 | -22.93064 | -43.97632 | 3501 ft | 149 kts | 79° |
| 2026-04-28 20:54 | -22.92889 | -43.96530 | 3499 ft | 149 kts | 79° |
| 2026-04-28 20:54 | -22.92714 | -43.95422 | 3500 ft | 149 kts | 79° |
| 2026-04-28 20:54 | -22.92539 | -43.94316 | 3499 ft | 149 kts | 79° |
| 2026-04-28 20:55 | -22.92363 | -43.93207 | 3500 ft | 149 kts | 79° |
| 2026-04-28 20:55 | -22.92188 | -43.92105 | 3501 ft | 149 kts | 79° |
| 2026-04-28 20:55 | -22.92012 | -43.90999 | 3499 ft | 149 kts | 79° |
| 2026-04-28 20:55 | -22.91836 | -43.89891 | 3500 ft | 149 kts | 79° |
| 2026-04-28 20:56 | -22.91661 | -43.88784 | 3500 ft | 149 kts | 79° |
| 2026-04-28 20:56 | -22.91418 | -43.87696 | 3493 ft | 148 kts | 66° |
| 2026-04-28 20:56 | -22.90887 | -43.86744 | 3501 ft | 149 kts | 54° |
| 2026-04-28 20:56 | -22.90321 | -43.85806 | 3500 ft | 149 kts | 56° |
| 2026-04-28 20:57 | -22.89749 | -43.84870 | 3500 ft | 149 kts | 55° |
| 2026-04-28 20:57 | -22.89176 | -43.83943 | 3437 ft | 146 kts | 55° |
| 2026-04-28 20:57 | -22.88804 | -43.83340 | 3330 ft | 144 kts | 55° |
| 2026-04-28 20:57 | -22.88064 | -43.82141 | 3148 ft | 143 kts | 55° |
| 2026-04-28 20:58 | -22.87695 | -43.81545 | 3059 ft | 143 kts | 55° |
| 2026-04-28 20:58 | -22.87142 | -43.80649 | 2930 ft | 143 kts | 55° |
| 2026-04-28 20:58 | -22.86588 | -43.79752 | 2805 ft | 143 kts | 55° |
| 2026-04-28 20:58 | -22.86037 | -43.78860 | 2685 ft | 143 kts | 55° |
| 2026-04-28 20:59 | -22.85481 | -43.77960 | 2567 ft | 143 kts | 55° |
| 2026-04-28 20:59 | -22.84926 | -43.77062 | 2454 ft | 143 kts | 55° |
| 2026-04-28 20:59 | -22.84370 | -43.76163 | 2345 ft | 144 kts | 55° |
| 2026-04-28 20:59 | -22.83814 | -43.75263 | 2238 ft | 144 kts | 55° |
| 2026-04-28 21:00 | -22.83260 | -43.74367 | 2136 ft | 144 kts | 55° |
| 2026-04-28 21:00 | -22.82704 | -43.73468 | 2037 ft | 144 kts | 55° |
| 2026-04-28 21:00 | -22.82146 | -43.72566 | 1940 ft | 144 kts | 55° |
| 2026-04-28 21:00 | -22.81589 | -43.71666 | 1847 ft | 144 kts | 55° |
| 2026-04-28 21:01 | -22.81029 | -43.70775 | 1757 ft | 144 kts | 53° |
| 2026-04-28 21:01 | -22.80492 | -43.69859 | 1662 ft | 144 kts | 60° |
| 2026-04-28 21:01 | -22.80038 | -43.68890 | 1577 ft | 144 kts | 62° |
| 2026-04-28 21:01 | -22.79582 | -43.67924 | 1496 ft | 144 kts | 62° |
| 2026-04-28 21:02 | -22.79130 | -43.66955 | 1417 ft | 144 kts | 62° |
| 2026-04-28 21:02 | -22.78677 | -43.65986 | 1339 ft | 144 kts | 62° |
| 2026-04-28 21:02 | -22.78224 | -43.65015 | 1264 ft | 144 kts | 62° |
| 2026-04-28 21:02 | -22.77770 | -43.64042 | 1192 ft | 144 kts | 62° |
| 2026-04-28 21:03 | -22.77318 | -43.63073 | 1122 ft | 144 kts | 62° |
| 2026-04-28 21:03 | -22.76868 | -43.62109 | 1096 ft | 142 kts | 62° |
| 2026-04-28 21:03 | -22.76527 | -43.61118 | 1075 ft | 139 kts | 83° |
| 2026-04-28 21:03 | -22.76829 | -43.60169 | 1099 ft | 138 kts | 129° |
| 2026-04-28 21:04 | -22.77579 | -43.59512 | 1106 ft | 142 kts | 143° |
| 2026-04-28 21:04 | -22.78422 | -43.58965 | 1092 ft | 141 kts | 157° |
| 2026-04-28 21:04 | -22.79377 | -43.58808 | 1110 ft | 141 kts | 178° |
| 2026-04-28 21:04 | -22.80334 | -43.58992 | 1109 ft | 140 kts | 196° |
| 2026-04-28 21:05 | -22.81256 | -43.59327 | 1028 ft | 140 kts | 197° |
| 2026-04-28 21:05 | -22.82179 | -43.59665 | 1044 ft | 144 kts | 198° |
| 2026-04-28 21:05 | -22.83144 | -43.60028 | 1017 ft | 149 kts | 198° |
| 2026-04-28 21:05 | -22.84125 | -43.60398 | 1006 ft | 149 kts | 198° |
| 2026-04-28 21:06 | -22.85106 | -43.60760 | 1001 ft | 149 kts | 195° |
| 2026-04-28 21:06 | -22.86109 | -43.60723 | 995 ft | 145 kts | 157° |
| 2026-04-28 21:06 | -22.86888 | -43.60037 | 1016 ft | 147 kts | 131° |
| 2026-04-28 21:06 | -22.87594 | -43.59225 | 1004 ft | 148 kts | 132° |
| 2026-04-28 21:07 | -22.88296 | -43.58403 | 1001 ft | 149 kts | 131° |
| 2026-04-28 21:07 | -22.88970 | -43.57560 | 1005 ft | 149 kts | 127° |
| 2026-04-28 21:07 | -22.89492 | -43.56575 | 1005 ft | 151 kts | 112° |
| 2026-04-28 21:07 | -22.89879 | -43.55510 | 1000 ft | 152 kts | 110° |
| 2026-04-28 21:08 | -22.90149 | -43.54419 | 987 ft | 151 kts | 90° |
| 2026-04-28 21:08 | -22.89737 | -43.53416 | 1005 ft | 149 kts | 45° |
| 2026-04-28 21:08 | -22.88998 | -43.52611 | 976 ft | 151 kts | 54° |
| 2026-04-28 21:08 | -22.88858 | -43.51543 | 1006 ft | 147 kts | 99° |
| 2026-04-28 21:09 | -22.89063 | -43.50444 | 1002 ft | 152 kts | 93° |
| 2026-04-28 21:09 | -22.89068 | -43.49293 | 998 ft | 153 kts | 89° |
| 2026-04-28 21:09 | -22.89093 | -43.48139 | 998 ft | 153 kts | 90° |
| 2026-04-28 21:09 | -22.89114 | -43.46991 | 999 ft | 153 kts | 90° |
| 2026-04-28 21:10 | -22.89134 | -43.45852 | 1083 ft | 146 kts | 90° |
| 2026-04-28 21:10 | -22.89195 | -43.44779 | 1383 ft | 143 kts | 99° |
| 2026-04-28 21:10 | -22.89731 | -43.43893 | 1550 ft | 145 kts | 137° |
| 2026-04-28 21:10 | -22.90600 | -43.43251 | 1470 ft | 152 kts | 153° |
| 2026-04-28 21:11 | -22.91610 | -43.42957 | 1493 ft | 152 kts | 168° |
| 2026-04-28 21:11 | -22.92649 | -43.42724 | 1496 ft | 153 kts | 167° |
| 2026-04-28 21:11 | -22.93687 | -43.42499 | 1498 ft | 152 kts | 168° |
| 2026-04-28 21:11 | -22.94730 | -43.42283 | 1499 ft | 153 kts | 168° |
| 2026-04-28 21:12 | -22.95745 | -43.42073 | 1617 ft | 152 kts | 168° |
| 2026-04-28 21:12 | -22.96801 | -43.41895 | 1498 ft | 154 kts | 176° |
| 2026-04-28 21:12 | -22.97780 | -43.42228 | 1519 ft | 150 kts | 207° |
| 2026-04-28 21:12 | -22.98707 | -43.42779 | 1508 ft | 152 kts | 206° |
| 2026-04-28 21:13 | -22.99641 | -43.43322 | 1502 ft | 152 kts | 207° |
| 2026-04-28 21:13 | -23.00569 | -43.43876 | 1501 ft | 153 kts | 207° |
| 2026-04-28 21:13 | -23.01553 | -43.44261 | 1484 ft | 150 kts | 183° |
| 2026-04-28 21:13 | -23.02495 | -43.43873 | 1498 ft | 149 kts | 137° |
| 2026-04-28 21:14 | -23.03014 | -43.42919 | 1504 ft | 151 kts | 106° |
| 2026-04-28 21:14 | -23.02972 | -43.41802 | 1520 ft | 151 kts | 76° |
| 2026-04-28 21:14 | -23.02857 | -43.40663 | 1508 ft | 151 kts | 87° |
| 2026-04-28 21:14 | -23.02749 | -43.39527 | 1504 ft | 152 kts | 79° |
| 2026-04-28 21:15 | -23.02560 | -43.38392 | 1500 ft | 152 kts | 79° |
| 2026-04-28 21:15 | -23.02376 | -43.37273 | 1500 ft | 152 kts | 77° |
| 2026-04-28 21:15 | -23.01877 | -43.36287 | 1486 ft | 149 kts | 40° |
| 2026-04-28 21:15 | -23.00940 | -43.35776 | 1504 ft | 153 kts | 21° |
| 2026-04-28 21:16 | -22.99976 | -43.35326 | 1500 ft | 153 kts | 22° |
| 2026-04-28 21:16 | -22.98992 | -43.34885 | 1499 ft | 153 kts | 21° |
| 2026-04-28 21:16 | -22.98009 | -43.34458 | 1500 ft | 152 kts | 19° |
| 2026-04-28 21:16 | -22.96978 | -43.34337 | 1503 ft | 151 kts | 352° |
| 2026-04-28 21:17 | -22.96015 | -43.34730 | 1489 ft | 150 kts | 322° |
| 2026-04-28 21:17 | -22.95462 | -43.35668 | 1515 ft | 147 kts | 282° |
| 2026-04-28 21:17 | -22.95645 | -43.36754 | 1268 ft | 153 kts | 238° |
| 2026-04-28 21:17 | -22.96473 | -43.37328 | 802 ft | 132 kts | 177° |
| 2026-04-28 21:18 | -22.97294 | -43.37304 | 563 ft | 106 kts | 184° |
| 2026-04-28 21:18 | -22.97877 | -43.37336 | 311 ft | 59 kts | 172° |
| 2026-04-28 21:18 | -22.98203 | -43.37337 | 112 ft | 34 kts | 180° |
| 2026-04-28 21:18 | -22.98385 | -43.37346 | 51 ft | 22 kts | 180° |
| 2026-04-28 21:19 | -22.98513 | -43.37355 | 29 ft | 14 kts | 180° |
| 2026-04-28 21:19 | -22.98579 | -43.37363 | 23 ft | 8 kts | 158° |
| 2026-04-28 21:19 | -22.98611 | -43.37349 | 35 ft | 5 kts | 53° |
| 2026-04-28 21:19 | -22.98581 | -43.37313 | 20 ft | 4 kts | 36° |
| 2026-04-28 21:20 | -22.98571 | -43.37304 | 14 ft | 5 kts | 37° |
| 2026-04-28 21:20 | -22.98546 | -43.37275 | 14 ft | 7 kts | 72° |
| 2026-04-28 21:20 | -22.98544 | -43.37238 | 14 ft | 2 kts | 144° |
| 2026-04-28 21:20 | -22.98553 | -43.37237 | 14 ft | 0 kts | 182° |
| 2026-04-28 21:21 | -22.98586 | -43.37319 | 27 ft | 5 kts | 37° |
| 2026-04-28 21:21 | -22.98553 | -43.37237 | 14 ft | 0 kts | 182° |